Aérodrome :
LOGIN :

S'inscrire | Disclaimer

   EN    FR    IT 

 










Légende :    VFR   VFR Marginal   IFR   IFR Intensif   IFR Très Intensif
Visi : 
Plafond : 
>= 8 km
>= 3000ft
5 à 8 km
1000 à 3000 ft
1500m à 5 km
500 à 1000 ft
800 à 1500m
200 à 500 ft
< 800m
< 200 ft
Symboles :   Orages  Brouillard  Fortes neiges  Fortes précipitations  Vent > 20 kt
SIGMETs :   Divers  Orages  Givrage  Turbulence  Onde Orograph.  Cendres Volcan.







- Altitude de l'aérodrome : 388 ft
- Code IATA : QYR
- Voir les cartes d'approche


LFQB - Troyes Barberey

DERNIER METAR :
  • 230630Z AUTO 21008KT 5000 -RADZ BR FEW011 SCT018 OVC037 14/13 Q1016

METARs EXPIRÉS :
  • 230600Z AUTO 20007KT 9999 BKN014 OVC023 14/13 Q1016
  • 230530Z AUTO 19006KT 9999 FEW013 BKN019 BKN025 14/13 Q1016
  • 230500Z AUTO 18006KT 9999 FEW014 OVC044 14/12 Q1016
  • 230430Z AUTO 18007KT 9999 FEW013 OVC039 14/12 Q1015
  • 230400Z AUTO 16004KT 9999 BKN016 BKN023 BKN033 14/12 Q1015
  • 230000Z AUTO 19010KT CAVOK 14/13 Q1014

TAF N/A
Pas de NOTAMs connus pour ce terrain.



MET'MAP, la Météo Aéronautique d'un coup d'oeil ! - Copyright ORBIFLY Décembre 2007 - Disclaimer

ORBIFLY MET'MAP TEAM :

Programmation & Développement : Alexandra Zaïnal
Conception & Développement : Baudouin d'Aumeries
Co-Programmation & Développement : Marc-Olivier Méhu
Soutien technique & logistique : Manuel Goepfert

Contact : metmap@orbifly.com




SOURCES & CREDITS :

   NOAA